sensor_id;sensor_type;location;lat;lon;timestamp;temperature;humidity
69359;HTU21D;56520;49.066;8.660;2022-11-02T00:01:56;6.26;98.14
69359;HTU21D;56520;49.066;8.660;2022-11-02T00:04:21;6.22;98.13
69359;HTU21D;56520;49.066;8.660;2022-11-02T00:06:47;6.24;98.18
69359;HTU21D;56520;49.066;8.660;2022-11-02T00:09:12;6.24;98.22
69359;HTU21D;56520;49.066;8.660;2022-11-02T00:11:37;6.24;98.20
69359;HTU21D;56520;49.066;8.660;2022-11-02T00:14:03;6.23;98.19
69359;HTU21D;56520;49.066;8.660;2022-11-02T00:16:29;6.22;98.22
69359;HTU21D;56520;49.066;8.660;2022-11-02T00:18:57;6.21;98.25
69359;HTU21D;56520;49.066;8.660;2022-11-02T00:21:24;6.22;98.26
69359;HTU21D;56520;49.066;8.660;2022-11-02T00:23:52;6.25;98.32
69359;HTU21D;56520;49.066;8.660;2022-11-02T00:26:18;6.26;98.32
69359;HTU21D;56520;49.066;8.660;2022-11-02T00:28:44;6.25;98.34
69359;HTU21D;56520;49.066;8.660;2022-11-02T00:31:09;6.27;98.35
69359;HTU21D;56520;49.066;8.660;2022-11-02T00:33:35;6.26;98.37
69359;HTU21D;56520;49.066;8.660;2022-11-02T00:36:00;6.25;98.40
69359;HTU21D;56520;49.066;8.660;2022-11-02T00:38:26;6.25;98.39
69359;HTU21D;56520;49.066;8.660;2022-11-02T00:40:51;6.23;98.37
69359;HTU21D;56520;49.066;8.660;2022-11-02T00:43:17;6.21;98.36
69359;HTU21D;56520;49.066;8.660;2022-11-02T00:45:42;6.17;98.39
69359;HTU21D;56520;49.066;8.660;2022-11-02T00:48:07;6.16;98.41
69359;HTU21D;56520;49.066;8.660;2022-11-02T00:50:33;6.14;98.45
69359;HTU21D;56520;49.066;8.660;2022-11-02T00:52:58;6.13;98.50
69359;HTU21D;56520;49.066;8.660;2022-11-02T00:55:24;6.15;98.52
69359;HTU21D;56520;49.066;8.660;2022-11-02T00:57:49;6.16;98.55
69359;HTU21D;56520;49.066;8.660;2022-11-02T01:00:17;6.19;98.59
69359;HTU21D;56520;49.066;8.660;2022-11-02T01:02:43;6.19;98.59
69359;HTU21D;56520;49.066;8.660;2022-11-02T01:05:09;6.20;98.61
69359;HTU21D;56520;49.066;8.660;2022-11-02T01:07:35;6.19;98.62
69359;HTU21D;56520;49.066;8.660;2022-11-02T01:10:03;6.19;98.61
69359;HTU21D;56520;49.066;8.660;2022-11-02T01:12:28;6.15;98.63
69359;HTU21D;56520;49.066;8.660;2022-11-02T01:14:54;6.15;98.64
69359;HTU21D;56520;49.066;8.660;2022-11-02T01:17:19;6.13;98.65
69359;HTU21D;56520;49.066;8.660;2022-11-02T01:19:45;6.11;98.67
69359;HTU21D;56520;49.066;8.660;2022-11-02T01:22:10;6.11;98.71
69359;HTU21D;56520;49.066;8.660;2022-11-02T01:24:36;6.13;98.73
69359;HTU21D;56520;49.066;8.660;2022-11-02T01:27:02;6.11;98.76
69359;HTU21D;56520;49.066;8.660;2022-11-02T01:29:27;6.11;98.77
69359;HTU21D;56520;49.066;8.660;2022-11-02T01:31:53;6.12;98.80
69359;HTU21D;56520;49.066;8.660;2022-11-02T01:34:19;6.13;98.81
69359;HTU21D;56520;49.066;8.660;2022-11-02T01:36:46;6.16;98.83
69359;HTU21D;56520;49.066;8.660;2022-11-02T01:39:12;6.19;98.85
69359;HTU21D;56520;49.066;8.660;2022-11-02T01:41:38;6.23;98.87
69359;HTU21D;56520;49.066;8.660;2022-11-02T01:44:04;6.26;98.89
69359;HTU21D;56520;49.066;8.660;2022-11-02T01:46:46;6.30;98.86
69359;HTU21D;56520;49.066;8.660;2022-11-02T01:49:15;6.34;98.84
69359;HTU21D;56520;49.066;8.660;2022-11-02T01:51:54;6.36;98.83
69359;HTU21D;56520;49.066;8.660;2022-11-02T01:54:30;6.44;98.79
69359;HTU21D;56520;49.066;8.660;2022-11-02T01:57:04;6.49;98.76
69359;HTU21D;56520;49.066;8.660;2022-11-02T01:59:41;6.56;98.75
69359;HTU21D;56520;49.066;8.660;2022-11-02T02:02:12;6.67;98.77
69359;HTU21D;56520;49.066;8.660;2022-11-02T02:04:40;6.72;98.80
69359;HTU21D;56520;49.066;8.660;2022-11-02T02:07:05;6.75;98.80
69359;HTU21D;56520;49.066;8.660;2022-11-02T02:09:32;6.79;98.71
69359;HTU21D;56520;49.066;8.660;2022-11-02T02:11:57;6.81;98.63
69359;HTU21D;56520;49.066;8.660;2022-11-02T02:14:23;6.86;98.58
69359;HTU21D;56520;49.066;8.660;2022-11-02T02:31:13;7.17;98.39
69359;HTU21D;56520;49.066;8.660;2022-11-02T02:36:21;7.20;98.32
69359;HTU21D;56520;49.066;8.660;2022-11-02T02:38:57;7.24;98.33
69359;HTU21D;56520;49.066;8.660;2022-11-02T02:41:53;7.28;98.32
69359;HTU21D;56520;49.066;8.660;2022-11-02T02:44:22;7.32;98.32
69359;HTU21D;56520;49.066;8.660;2022-11-02T02:46:56;7.39;98.32
69359;HTU21D;56520;49.066;8.660;2022-11-02T02:49:35;7.43;98.33
69359;HTU21D;56520;49.066;8.660;2022-11-02T02:52:02;7.47;98.32
69359;HTU21D;56520;49.066;8.660;2022-11-02T02:54:35;7.49;98.28
69359;HTU21D;56520;49.066;8.660;2022-11-02T02:57:10;7.52;98.26
69359;HTU21D;56520;49.066;8.660;2022-11-02T02:59:42;7.54;98.26
69359;HTU21D;56520;49.066;8.660;2022-11-02T03:02:23;7.57;98.27
69359;HTU21D;56520;49.066;8.660;2022-11-02T03:04:49;7.59;98.26
69359;HTU21D;56520;49.066;8.660;2022-11-02T03:07:22;7.60;98.26
69359;HTU21D;56520;49.066;8.660;2022-11-02T03:15:24;7.67;98.23
69359;HTU21D;56520;49.066;8.660;2022-11-02T03:23:28;7.67;98.21
69359;HTU21D;56520;49.066;8.660;2022-11-02T03:28:30;7.62;98.20
69359;HTU21D;56520;49.066;8.660;2022-11-02T03:31:17;7.61;98.24
69359;HTU21D;56520;49.066;8.660;2022-11-02T03:34:13;7.62;98.26
69359;HTU21D;56520;49.066;8.660;2022-11-02T03:36:55;7.63;98.26
69359;HTU21D;56520;49.066;8.660;2022-11-02T03:39:35;7.67;98.29
69359;HTU21D;56520;49.066;8.660;2022-11-02T03:42:03;7.65;98.25
69359;HTU21D;56520;49.066;8.660;2022-11-02T03:44:29;7.63;98.21
69359;HTU21D;56520;49.066;8.660;2022-11-02T03:46:58;7.58;98.18
69359;HTU21D;56520;49.066;8.660;2022-11-02T03:49:26;7.55;98.18
69359;HTU21D;56520;49.066;8.660;2022-11-02T03:51:54;7.50;98.20
69359;HTU21D;56520;49.066;8.660;2022-11-02T03:54:48;7.48;98.23
69359;HTU21D;56520;49.066;8.660;2022-11-02T03:57:24;7.47;98.26
69359;HTU21D;56520;49.066;8.660;2022-11-02T03:59:51;7.48;98.29
69359;HTU21D;56520;49.066;8.660;2022-11-02T04:02:17;7.49;98.32
69359;HTU21D;56520;49.066;8.660;2022-11-02T04:04:51;7.46;98.35
69359;HTU21D;56520;49.066;8.660;2022-11-02T04:07:21;7.43;98.37
69359;HTU21D;56520;49.066;8.660;2022-11-02T04:09:48;7.40;98.41
69359;HTU21D;56520;49.066;8.660;2022-11-02T04:12:13;7.40;98.42
69359;HTU21D;56520;49.066;8.660;2022-11-02T04:15:02;7.41;98.43
69359;HTU21D;56520;49.066;8.660;2022-11-02T04:17:27;7.33;98.41
69359;HTU21D;56520;49.066;8.660;2022-11-02T04:20:12;7.24;98.39
69359;HTU21D;56520;49.066;8.660;2022-11-02T04:22:37;7.16;98.42
69359;HTU21D;56520;49.066;8.660;2022-11-02T04:25:21;7.12;98.46
69359;HTU21D;56520;49.066;8.660;2022-11-02T04:27:49;7.08;98.47
69359;HTU21D;56520;49.066;8.660;2022-11-02T04:30:17;6.99;98.45
69359;HTU21D;56520;49.066;8.660;2022-11-02T04:32:45;6.96;98.50
69359;HTU21D;56520;49.066;8.660;2022-11-02T04:35:29;6.97;98.51
69359;HTU21D;56520;49.066;8.660;2022-11-02T04:38:07;7.01;98.50
69359;HTU21D;56520;49.066;8.660;2022-11-02T04:40:51;7.03;98.48
69359;HTU21D;56520;49.066;8.660;2022-11-02T04:43:36;7.02;98.42
69359;HTU21D;56520;49.066;8.660;2022-11-02T04:46:02;6.96;98.37
69359;HTU21D;56520;49.066;8.660;2022-11-02T04:48:27;6.91;98.35
69359;HTU21D;56520;49.066;8.660;2022-11-02T04:50:52;6.94;98.35
69359;HTU21D;56520;49.066;8.660;2022-11-02T04:53:18;6.97;98.32
69359;HTU21D;56520;49.066;8.660;2022-11-02T04:55:45;7.02;98.29
69359;HTU21D;56520;49.066;8.660;2022-11-02T04:58:16;7.09;98.27
69359;HTU21D;56520;49.066;8.660;2022-11-02T05:00:42;7.16;98.20
69359;HTU21D;56520;49.066;8.660;2022-11-02T05:03:07;7.25;98.12
69359;HTU21D;56520;49.066;8.660;2022-11-02T05:05:33;7.31;97.96
69359;HTU21D;56520;49.066;8.660;2022-11-02T05:07:58;7.35;97.81
69359;HTU21D;56520;49.066;8.660;2022-11-02T05:10:24;7.40;97.66
69359;HTU21D;56520;49.066;8.660;2022-11-02T05:12:56;7.46;97.55
69359;HTU21D;56520;49.066;8.660;2022-11-02T05:15:21;7.52;97.42
69359;HTU21D;56520;49.066;8.660;2022-11-02T05:17:47;7.57;97.26
69359;HTU21D;56520;49.066;8.660;2022-11-02T05:20:13;7.62;97.15
69359;HTU21D;56520;49.066;8.660;2022-11-02T05:22:41;7.70;97.05
69359;HTU21D;56520;49.066;8.660;2022-11-02T05:25:11;7.75;96.97
69359;HTU21D;56520;49.066;8.660;2022-11-02T05:27:37;7.79;96.88
69359;HTU21D;56520;49.066;8.660;2022-11-02T05:30:04;7.82;96.78
69359;HTU21D;56520;49.066;8.660;2022-11-02T05:32:30;7.86;96.72
69359;HTU21D;56520;49.066;8.660;2022-11-02T05:34:56;7.90;96.68
69359;HTU21D;56520;49.066;8.660;2022-11-02T05:37:21;7.94;96.65
69359;HTU21D;56520;49.066;8.660;2022-11-02T05:39:47;8.03;96.64
69359;HTU21D;56520;49.066;8.660;2022-11-02T05:42:12;8.18;96.57
69359;HTU21D;56520;49.066;8.660;2022-11-02T05:44:37;8.31;96.51
69359;HTU21D;56520;49.066;8.660;2022-11-02T05:47:03;8.45;96.45
69359;HTU21D;56520;49.066;8.660;2022-11-02T05:49:29;8.65;96.49
69359;HTU21D;56520;49.066;8.660;2022-11-02T05:51:54;8.85;96.65
69359;HTU21D;56520;49.066;8.660;2022-11-02T05:54:20;9.16;96.81
69359;HTU21D;56520;49.066;8.660;2022-11-02T05:56:45;9.46;97.14
69359;HTU21D;56520;49.066;8.660;2022-11-02T05:59:11;9.86;97.21
69359;HTU21D;56520;49.066;8.660;2022-11-02T06:01:36;10.25;96.81
69359;HTU21D;56520;49.066;8.660;2022-11-02T06:04:03;10.42;96.46
69359;HTU21D;56520;49.066;8.660;2022-11-02T06:06:29;10.60;96.05
69359;HTU21D;56520;49.066;8.660;2022-11-02T06:08:55;10.71;95.73
69359;HTU21D;56520;49.066;8.660;2022-11-02T06:11:21;10.89;95.02
69359;HTU21D;56520;49.066;8.660;2022-11-02T06:13:49;11.10;93.87
69359;HTU21D;56520;49.066;8.660;2022-11-02T06:16:15;11.10;93.95
69359;HTU21D;56520;49.066;8.660;2022-11-02T06:18:41;11.14;93.69
69359;HTU21D;56520;49.066;8.660;2022-11-02T06:21:06;11.17;93.32
69359;HTU21D;56520;49.066;8.660;2022-11-02T06:23:32;11.16;93.49
69359;HTU21D;56520;49.066;8.660;2022-11-02T06:25:58;11.16;93.62
69359;HTU21D;56520;49.066;8.660;2022-11-02T06:28:24;11.17;93.50
69359;HTU21D;56520;49.066;8.660;2022-11-02T06:30:50;11.16;93.66
69359;HTU21D;56520;49.066;8.660;2022-11-02T06:33:17;11.15;93.66
69359;HTU21D;56520;49.066;8.660;2022-11-02T06:35:44;11.17;93.66
69359;HTU21D;56520;49.066;8.660;2022-11-02T06:38:10;11.14;93.73
69359;HTU21D;56520;49.066;8.660;2022-11-02T06:40:36;11.14;93.82
69359;HTU21D;56520;49.066;8.660;2022-11-02T06:43:01;11.11;93.85
69359;HTU21D;56520;49.066;8.660;2022-11-02T06:45:30;11.03;94.01
69359;HTU21D;56520;49.066;8.660;2022-11-02T06:47:55;10.98;94.24
69359;HTU21D;56520;49.066;8.660;2022-11-02T06:50:21;10.97;94.30
69359;HTU21D;56520;49.066;8.660;2022-11-02T06:52:48;10.93;94.43
69359;HTU21D;56520;49.066;8.660;2022-11-02T06:55:14;10.93;94.50
69359;HTU21D;56520;49.066;8.660;2022-11-02T06:57:41;10.92;94.56
69359;HTU21D;56520;49.066;8.660;2022-11-02T07:00:12;10.86;94.59
69359;HTU21D;56520;49.066;8.660;2022-11-02T07:02:39;10.82;94.74
69359;HTU21D;56520;49.066;8.660;2022-11-02T07:05:05;10.78;94.91
69359;HTU21D;56520;49.066;8.660;2022-11-02T07:07:31;10.80;94.95
69359;HTU21D;56520;49.066;8.660;2022-11-02T07:09:56;10.80;94.86
69359;HTU21D;56520;49.066;8.660;2022-11-02T07:12:22;10.79;94.74
69359;HTU21D;56520;49.066;8.660;2022-11-02T07:14:47;10.82;94.49
69359;HTU21D;56520;49.066;8.660;2022-11-02T07:17:12;10.83;94.34
69359;HTU21D;56520;49.066;8.660;2022-11-02T07:19:38;10.84;94.25
69359;HTU21D;56520;49.066;8.660;2022-11-02T07:22:04;10.87;94.05
69359;HTU21D;56520;49.066;8.660;2022-11-02T07:24:29;10.87;93.97
69359;HTU21D;56520;49.066;8.660;2022-11-02T07:26:55;10.87;93.96
69359;HTU21D;56520;49.066;8.660;2022-11-02T07:29:20;10.88;94.04
69359;HTU21D;56520;49.066;8.660;2022-11-02T07:31:46;10.98;93.79
69359;HTU21D;56520;49.066;8.660;2022-11-02T07:34:12;11.16;92.88
69359;HTU21D;56520;49.066;8.660;2022-11-02T07:36:38;11.28;92.22
69359;HTU21D;56520;49.066;8.660;2022-11-02T07:39:04;11.31;92.05
69359;HTU21D;56520;49.066;8.660;2022-11-02T07:41:29;11.37;91.75
69359;HTU21D;56520;49.066;8.660;2022-11-02T07:43:55;11.38;91.49
69359;HTU21D;56520;49.066;8.660;2022-11-02T07:46:20;11.41;91.44
69359;HTU21D;56520;49.066;8.660;2022-11-02T07:48:46;11.44;91.53
69359;HTU21D;56520;49.066;8.660;2022-11-02T07:51:12;11.43;91.39
69359;HTU21D;56520;49.066;8.660;2022-11-02T07:53:37;11.43;91.09
69359;HTU21D;56520;49.066;8.660;2022-11-02T07:56:06;11.41;91.21
69359;HTU21D;56520;49.066;8.660;2022-11-02T07:58:34;11.51;90.75
69359;HTU21D;56520;49.066;8.660;2022-11-02T08:01:00;11.61;90.44
69359;HTU21D;56520;49.066;8.660;2022-11-02T08:03:27;11.76;89.94
69359;HTU21D;56520;49.066;8.660;2022-11-02T08:05:52;11.90;89.08
69359;HTU21D;56520;49.066;8.660;2022-11-02T08:08:22;11.99;88.61
69359;HTU21D;56520;49.066;8.660;2022-11-02T08:10:50;12.04;88.02
69359;HTU21D;56520;49.066;8.660;2022-11-02T08:13:23;12.11;87.99
69359;HTU21D;56520;49.066;8.660;2022-11-02T08:15:53;12.16;87.41
69359;HTU21D;56520;49.066;8.660;2022-11-02T08:18:22;12.22;87.22
69359;HTU21D;56520;49.066;8.660;2022-11-02T08:20:48;12.35;85.84
69359;HTU21D;56520;49.066;8.660;2022-11-02T08:23:16;12.46;85.19
69359;HTU21D;56520;49.066;8.660;2022-11-02T08:25:43;12.45;85.45
69359;HTU21D;56520;49.066;8.660;2022-11-02T08:28:12;12.42;86.03
69359;HTU21D;56520;49.066;8.660;2022-11-02T08:30:38;12.44;85.93
69359;HTU21D;56520;49.066;8.660;2022-11-02T08:33:06;12.46;85.98
69359;HTU21D;56520;49.066;8.660;2022-11-02T08:35:33;12.52;85.00
69359;HTU21D;56520;49.066;8.660;2022-11-02T08:37:59;12.79;82.00
69359;HTU21D;56520;49.066;8.660;2022-11-02T08:40:25;12.84;82.51
69359;HTU21D;56520;49.066;8.660;2022-11-02T08:42:58;12.85;83.21
69359;HTU21D;56520;49.066;8.660;2022-11-02T08:45:24;12.86;82.97
69359;HTU21D;56520;49.066;8.660;2022-11-02T08:47:50;12.91;82.23
69359;HTU21D;56520;49.066;8.660;2022-11-02T08:50:15;12.94;82.24
69359;HTU21D;56520;49.066;8.660;2022-11-02T08:52:40;12.92;82.23
69359;HTU21D;56520;49.066;8.660;2022-11-02T08:55:06;13.05;81.09
69359;HTU21D;56520;49.066;8.660;2022-11-02T08:57:32;13.09;81.78
69359;HTU21D;56520;49.066;8.660;2022-11-02T08:59:57;13.14;81.88
69359;HTU21D;56520;49.066;8.660;2022-11-02T09:02:23;13.20;80.49
69359;HTU21D;56520;49.066;8.660;2022-11-02T09:04:48;13.27;79.89
69359;HTU21D;56520;49.066;8.660;2022-11-02T09:07:14;13.32;79.85
69359;HTU21D;56520;49.066;8.660;2022-11-02T09:09:39;13.40;79.55
69359;HTU21D;56520;49.066;8.660;2022-11-02T09:12:05;13.47;79.08
69359;HTU21D;56520;49.066;8.660;2022-11-02T09:14:30;13.48;79.21
69359;HTU21D;56520;49.066;8.660;2022-11-02T09:16:55;13.47;79.49
69359;HTU21D;56520;49.066;8.660;2022-11-02T09:19:21;13.43;80.36
69359;HTU21D;56520;49.066;8.660;2022-11-02T09:21:46;13.37;79.89
69359;HTU21D;56520;49.066;8.660;2022-11-02T09:24:15;13.33;79.13
69359;HTU21D;56520;49.066;8.660;2022-11-02T09:26:41;13.27;79.34
69359;HTU21D;56520;49.066;8.660;2022-11-02T09:29:06;13.15;80.36
69359;HTU21D;56520;49.066;8.660;2022-11-02T09:31:32;13.09;81.12
69359;HTU21D;56520;49.066;8.660;2022-11-02T09:33:57;13.09;80.70
69359;HTU21D;56520;49.066;8.660;2022-11-02T09:36:22;13.17;79.81
69359;HTU21D;56520;49.066;8.660;2022-11-02T09:38:48;13.23;79.28
69359;HTU21D;56520;49.066;8.660;2022-11-02T09:41:33;13.27;79.49
69359;HTU21D;56520;49.066;8.660;2022-11-02T09:44:12;13.40;79.01
69359;HTU21D;56520;49.066;8.660;2022-11-02T09:46:41;13.52;78.67
69359;HTU21D;56520;49.066;8.660;2022-11-02T09:49:15;13.56;78.56
69359;HTU21D;56520;49.066;8.660;2022-11-02T09:54:21;13.64;78.01
69359;HTU21D;56520;49.066;8.660;2022-11-02T09:56:49;13.73;77.76
69359;HTU21D;56520;49.066;8.660;2022-11-02T09:59:21;13.90;77.47
69359;HTU21D;56520;49.066;8.660;2022-11-02T10:02:24;13.99;77.86
69359;HTU21D;56520;49.066;8.660;2022-11-02T10:15:55;13.98;74.50
69359;HTU21D;56520;49.066;8.660;2022-11-02T10:18:24;14.04;73.09
69359;HTU21D;56520;49.066;8.660;2022-11-02T10:20:53;13.98;74.06
69359;HTU21D;56520;49.066;8.660;2022-11-02T10:23:32;13.86;74.89
69359;HTU21D;56520;49.066;8.660;2022-11-02T10:25:59;13.68;76.01
69359;HTU21D;56520;49.066;8.660;2022-11-02T10:28:29;13.59;75.56
69359;HTU21D;56520;49.066;8.660;2022-11-02T10:30:56;13.47;76.57
69359;HTU21D;56520;49.066;8.660;2022-11-02T10:33:25;13.46;75.06
69359;HTU21D;56520;49.066;8.660;2022-11-02T10:52:21;15.18;69.36
69359;HTU21D;56520;49.066;8.660;2022-11-02T10:54:50;15.55;67.88
69359;HTU21D;56520;49.066;8.660;2022-11-02T10:57:21;15.97;65.46
69359;HTU21D;56520;49.066;8.660;2022-11-02T11:03:12;15.99;61.83
69359;HTU21D;56520;49.066;8.660;2022-11-02T11:11:18;15.92;60.70
69359;HTU21D;56520;49.066;8.660;2022-11-02T11:14:02;15.89;60.51
69359;HTU21D;56520;49.066;8.660;2022-11-02T11:16:40;15.81;62.21
69359;HTU21D;56520;49.066;8.660;2022-11-02T11:19:18;15.74;62.86
69359;HTU21D;56520;49.066;8.660;2022-11-02T11:21:45;15.72;63.21
69359;HTU21D;56520;49.066;8.660;2022-11-02T11:26:44;15.86;61.34
69359;HTU21D;56520;49.066;8.660;2022-11-02T11:29:21;15.93;60.53
69359;HTU21D;56520;49.066;8.660;2022-11-02T11:31:47;15.92;61.09
69359;HTU21D;56520;49.066;8.660;2022-11-02T11:34:27;15.92;61.86
69359;HTU21D;56520;49.066;8.660;2022-11-02T11:37:04;16.00;61.67
69359;HTU21D;56520;49.066;8.660;2022-11-02T11:39:30;16.08;62.12
69359;HTU21D;56520;49.066;8.660;2022-11-02T11:41:57;16.15;61.63
69359;HTU21D;56520;49.066;8.660;2022-11-02T11:44:23;16.20;60.54
69359;HTU21D;56520;49.066;8.660;2022-11-02T11:46:55;16.27;60.16
69359;HTU21D;56520;49.066;8.660;2022-11-02T11:49:24;16.43;58.18
69359;HTU21D;56520;49.066;8.660;2022-11-02T11:51:55;16.39;58.79
69359;HTU21D;56520;49.066;8.660;2022-11-02T11:56:58;16.45;58.04
69359;HTU21D;56520;49.066;8.660;2022-11-02T11:59:27;16.45;59.31
69359;HTU21D;56520;49.066;8.660;2022-11-02T12:01:56;16.48;58.53
69359;HTU21D;56520;49.066;8.660;2022-11-02T12:04:33;16.49;57.81
69359;HTU21D;56520;49.066;8.660;2022-11-02T12:09:51;16.30;58.22
69359;HTU21D;56520;49.066;8.660;2022-11-02T12:15:25;16.40;58.12
69359;HTU21D;56520;49.066;8.660;2022-11-02T12:23:38;16.32;56.95
69359;HTU21D;56520;49.066;8.660;2022-11-02T12:29:01;16.41;57.74
69359;HTU21D;56520;49.066;8.660;2022-11-02T12:31:36;16.56;56.21
69359;HTU21D;56520;49.066;8.660;2022-11-02T12:42:28;16.81;56.34
69359;HTU21D;56520;49.066;8.660;2022-11-02T12:45:16;17.00;53.72
69359;HTU21D;56520;49.066;8.660;2022-11-02T12:55:42;16.84;55.75
69359;HTU21D;56520;49.066;8.660;2022-11-02T12:58:18;16.91;55.55
69359;HTU21D;56520;49.066;8.660;2022-11-02T13:00:47;16.94;55.41
69359;HTU21D;56520;49.066;8.660;2022-11-02T13:03:43;17.08;54.05
69359;HTU21D;56520;49.066;8.660;2022-11-02T13:06:09;16.99;54.74
69359;HTU21D;56520;49.066;8.660;2022-11-02T13:08:42;16.93;55.33
69359;HTU21D;56520;49.066;8.660;2022-11-02T13:11:14;16.93;54.07
69359;HTU21D;56520;49.066;8.660;2022-11-02T13:13:46;16.88;54.65
69359;HTU21D;56520;49.066;8.660;2022-11-02T13:16:14;16.86;54.89
69359;HTU21D;56520;49.066;8.660;2022-11-02T13:18:48;16.85;55.65
69359;HTU21D;56520;49.066;8.660;2022-11-02T13:21:18;16.88;55.46
69359;HTU21D;56520;49.066;8.660;2022-11-02T13:23:49;16.90;55.75
69359;HTU21D;56520;49.066;8.660;2022-11-02T13:31:59;17.11;55.26
69359;HTU21D;56520;49.066;8.660;2022-11-02T13:34:39;17.09;56.34
69359;HTU21D;56520;49.066;8.660;2022-11-02T13:37:34;17.11;55.84
69359;HTU21D;56520;49.066;8.660;2022-11-02T13:40:18;17.23;55.26
69359;HTU21D;56520;49.066;8.660;2022-11-02T13:46:13;17.25;54.37
69359;HTU21D;56520;49.066;8.660;2022-11-02T13:48:54;17.19;54.40
69359;HTU21D;56520;49.066;8.660;2022-11-02T13:51:23;17.10;55.43
69359;HTU21D;56520;49.066;8.660;2022-11-02T13:53:54;17.03;56.62
69359;HTU21D;56520;49.066;8.660;2022-11-02T13:56:24;17.04;56.49
69359;HTU21D;56520;49.066;8.660;2022-11-02T13:58:57;17.01;57.71
69359;HTU21D;56520;49.066;8.660;2022-11-02T14:01:24;17.04;57.84
69359;HTU21D;56520;49.066;8.660;2022-11-02T14:06:29;17.06;56.68
69359;HTU21D;56520;49.066;8.660;2022-11-02T14:09:06;16.99;57.71
69359;HTU21D;56520;49.066;8.660;2022-11-02T14:16:43;16.79;56.88
69359;HTU21D;56520;49.066;8.660;2022-11-02T14:19:19;16.73;56.69
69359;HTU21D;56520;49.066;8.660;2022-11-02T14:22:02;16.54;57.97
69359;HTU21D;56520;49.066;8.660;2022-11-02T14:27:03;16.29;59.32
69359;HTU21D;56520;49.066;8.660;2022-11-02T14:29:51;16.15;59.71
69359;HTU21D;56520;49.066;8.660;2022-11-02T14:32:22;16.11;60.49
69359;HTU21D;56520;49.066;8.660;2022-11-02T14:42:08;15.77;61.76
69359;HTU21D;56520;49.066;8.660;2022-11-02T14:47:14;15.67;61.31
69359;HTU21D;56520;49.066;8.660;2022-11-02T14:49:53;15.57;61.11
69359;HTU21D;56520;49.066;8.660;2022-11-02T14:52:32;15.43;61.73
69359;HTU21D;56520;49.066;8.660;2022-11-02T14:55:25;15.29;62.25
69359;HTU21D;56520;49.066;8.660;2022-11-02T15:08:58;14.88;63.58
69359;HTU21D;56520;49.066;8.660;2022-11-02T15:11:47;14.73;63.90
69359;HTU21D;56520;49.066;8.660;2022-11-02T15:14:50;14.59;64.35
69359;HTU21D;56520;49.066;8.660;2022-11-02T15:19:44;14.37;64.96
69359;HTU21D;56520;49.066;8.660;2022-11-02T15:22:32;14.29;65.80
69359;HTU21D;56520;49.066;8.660;2022-11-02T15:27:37;14.08;66.43
69359;HTU21D;56520;49.066;8.660;2022-11-02T15:30:06;13.97;66.77
69359;HTU21D;56520;49.066;8.660;2022-11-02T15:32:36;13.88;66.90
69359;HTU21D;56520;49.066;8.660;2022-11-02T15:35:03;13.76;67.07
69359;HTU21D;56520;49.066;8.660;2022-11-02T15:37:30;13.64;67.27
69359;HTU21D;56520;49.066;8.660;2022-11-02T15:39:58;13.51;67.64
69359;HTU21D;56520;49.066;8.660;2022-11-02T15:48:14;13.06;69.57
69359;HTU21D;56520;49.066;8.660;2022-11-02T15:51:07;12.90;69.97
69359;HTU21D;56520;49.066;8.660;2022-11-02T16:02:25;12.22;72.09
69359;HTU21D;56520;49.066;8.660;2022-11-02T16:04:54;12.08;72.65
69359;HTU21D;56520;49.066;8.660;2022-11-02T16:07:20;11.97;73.01
69359;HTU21D;56520;49.066;8.660;2022-11-02T16:09:46;11.87;73.73
69359;HTU21D;56520;49.066;8.660;2022-11-02T16:14:42;11.68;74.74
69359;HTU21D;56520;49.066;8.660;2022-11-02T16:17:27;11.56;75.05
69359;HTU21D;56520;49.066;8.660;2022-11-02T16:20:23;11.41;75.47
69359;HTU21D;56520;49.066;8.660;2022-11-02T16:22:58;11.29;75.93
69359;HTU21D;56520;49.066;8.660;2022-11-02T16:25:38;11.17;76.81
69359;HTU21D;56520;49.066;8.660;2022-11-02T16:30:41;10.94;77.65
69359;HTU21D;56520;49.066;8.660;2022-11-02T16:33:09;10.81;77.63
69359;HTU21D;56520;49.066;8.660;2022-11-02T16:35:36;10.70;77.68
69359;HTU21D;56520;49.066;8.660;2022-11-02T16:38:01;10.59;77.91
69359;HTU21D;56520;49.066;8.660;2022-11-02T16:40:27;10.50;78.36
69359;HTU21D;56520;49.066;8.660;2022-11-02T16:42:53;10.42;79.16
69359;HTU21D;56520;49.066;8.660;2022-11-02T16:45:36;10.33;78.93
69359;HTU21D;56520;49.066;8.660;2022-11-02T16:48:20;10.21;79.17
69359;HTU21D;56520;49.066;8.660;2022-11-02T16:50:58;10.12;79.50
69359;HTU21D;56520;49.066;8.660;2022-11-02T16:53:29;10.05;80.24
69359;HTU21D;56520;49.066;8.660;2022-11-02T16:56:21;9.99;80.20
69359;HTU21D;56520;49.066;8.660;2022-11-02T16:58:46;9.92;80.68
69359;HTU21D;56520;49.066;8.660;2022-11-02T17:01:20;9.84;80.73
69359;HTU21D;56520;49.066;8.660;2022-11-02T17:03:46;9.79;81.30
69359;HTU21D;56520;49.066;8.660;2022-11-02T17:06:13;9.76;82.31
69359;HTU21D;56520;49.066;8.660;2022-11-02T17:08:40;9.68;82.64
69359;HTU21D;56520;49.066;8.660;2022-11-02T17:11:12;9.60;82.83
69359;HTU21D;56520;49.066;8.660;2022-11-02T17:13:44;9.54;82.83
69359;HTU21D;56520;49.066;8.660;2022-11-02T17:16:15;9.47;83.05
69359;HTU21D;56520;49.066;8.660;2022-11-02T17:18:41;9.40;83.00
69359;HTU21D;56520;49.066;8.660;2022-11-02T17:23:40;9.25;83.24
69359;HTU21D;56520;49.066;8.660;2022-11-02T17:28:58;9.09;84.56
69359;HTU21D;56520;49.066;8.660;2022-11-02T17:33:52;8.95;84.98
69359;HTU21D;56520;49.066;8.660;2022-11-02T17:36:18;8.90;85.32
69359;HTU21D;56520;49.066;8.660;2022-11-02T17:38:44;8.80;85.19
69359;HTU21D;56520;49.066;8.660;2022-11-02T17:41:17;8.74;85.39
69359;HTU21D;56520;49.066;8.660;2022-11-02T17:44:02;8.71;86.00
69359;HTU21D;56520;49.066;8.660;2022-11-02T17:46:28;8.65;86.22
69359;HTU21D;56520;49.066;8.660;2022-11-02T17:48:53;8.59;86.38
69359;HTU21D;56520;49.066;8.660;2022-11-02T17:51:22;8.50;86.23
69359;HTU21D;56520;49.066;8.660;2022-11-02T17:53:49;8.46;86.22
69359;HTU21D;56520;49.066;8.660;2022-11-02T17:56:14;8.41;86.14
69359;HTU21D;56520;49.066;8.660;2022-11-02T17:58:40;8.37;86.29
69359;HTU21D;56520;49.066;8.660;2022-11-02T18:01:05;8.34;86.46
69359;HTU21D;56520;49.066;8.660;2022-11-02T18:03:33;8.32;86.64
69359;HTU21D;56520;49.066;8.660;2022-11-02T18:05:59;8.29;86.85
69359;HTU21D;56520;49.066;8.660;2022-11-02T18:08:24;8.26;86.91
69359;HTU21D;56520;49.066;8.660;2022-11-02T18:10:51;8.21;86.80
69359;HTU21D;56520;49.066;8.660;2022-11-02T18:13:18;8.16;86.90
69359;HTU21D;56520;49.066;8.660;2022-11-02T18:15:44;8.12;87.22
69359;HTU21D;56520;49.066;8.660;2022-11-02T18:18:11;8.08;87.48
69359;HTU21D;56520;49.066;8.660;2022-11-02T18:20:37;8.05;87.61
69359;HTU21D;56520;49.066;8.660;2022-11-02T18:23:03;8.03;87.75
69359;HTU21D;56520;49.066;8.660;2022-11-02T18:25:29;8.03;88.45
69359;HTU21D;56520;49.066;8.660;2022-11-02T18:27:55;8.01;88.78
69359;HTU21D;56520;49.066;8.660;2022-11-02T18:30:21;7.97;89.00
69359;HTU21D;56520;49.066;8.660;2022-11-02T18:32:47;7.93;89.03
69359;HTU21D;56520;49.066;8.660;2022-11-02T18:35:15;7.90;88.96
69359;HTU21D;56520;49.066;8.660;2022-11-02T18:37:42;7.87;89.17